Time;durP1;ratioP1;P1;durP2;ratioP2;P2;SDS_P1;SDS_P2;PMS_P1;PMS_P2;Temp;Humidity;BMP_temperature;BMP_pressure;BME280_temperature;BME280_humidity;BME280_pressure;Samples;Min_cycle;Max_cycle;Signal;HPM_P1;HPM_P2
2021/12/02 00:01:48;;;;;;;1.40;1.00;;;5.90;99.90;;;;;;5156595;27;20201;-81
2021/12/02 00:04:15;;;;;;;4.23;1.10;;;5.90;99.90;;;;;;5156473;27;20575;-81
2021/12/02 00:06:42;;;;;;;2.70;1.10;;;6.00;99.90;;;;;;5156771;27;20198;-81
2021/12/02 00:09:09;;;;;;;3.60;1.00;;;6.00;99.90;;;;;;5156630;27;20212;-80
2021/12/02 00:11:38;;;;;;;3.53;1.17;;;6.10;99.90;;;;;;5156496;27;20208;-81
2021/12/02 00:14:09;;;;;;;2.60;1.10;;;6.10;99.90;;;;;;5156236;27;20223;-81
2021/12/02 00:16:39;;;;;;;4.00;1.00;;;6.20;99.90;;;;;;5156670;27;20176;-80
2021/12/02 00:21:53;;;;;;;1.83;0.90;;;6.20;99.90;;;;;;5156180;27;20685;-80
2021/12/02 00:24:23;;;;;;;3.30;1.23;;;6.20;99.90;;;;;;5156005;27;20302;-81
2021/12/02 00:26:53;;;;;;;3.07;1.60;;;6.30;99.90;;;;;;5156419;27;20193;-80
2021/12/02 00:29:22;;;;;;;4.03;1.13;;;6.30;99.90;;;;;;5156714;27;20251;-82
2021/12/02 00:31:51;;;;;;;3.83;0.90;;;6.30;99.90;;;;;;5156381;27;20194;-81
2021/12/02 00:34:19;;;;;;;3.40;1.13;;;6.20;99.90;;;;;;5156399;27;20202;-81
2021/12/02 00:36:46;;;;;;;3.20;1.00;;;6.20;99.90;;;;;;5155973;27;20205;-82
2021/12/02 00:39:16;;;;;;;3.83;1.00;;;6.20;99.90;;;;;;5155939;27;20225;-81
2021/12/02 00:41:44;;;;;;;3.90;0.93;;;6.20;99.90;;;;;;5155439;27;20699;-81
2021/12/02 00:44:13;;;;;;;1.90;1.00;;;6.20;99.90;;;;;;5155915;27;20217;-80
2021/12/02 00:46:43;;;;;;;2.63;0.80;;;6.20;99.90;;;;;;5155805;27;20187;-81
2021/12/02 00:49:12;;;;;;;3.27;0.87;;;6.20;99.90;;;;;;5155802;27;20240;-81
2021/12/02 00:51:41;;;;;;;2.07;0.97;;;6.20;99.90;;;;;;5155849;27;20243;-81
2021/12/02 00:54:10;;;;;;;2.07;1.07;;;6.20;99.90;;;;;;5155253;27;20191;-81
2021/12/02 00:56:38;;;;;;;2.53;0.80;;;6.20;99.90;;;;;;5155658;27;20191;-81
2021/12/02 00:59:07;;;;;;;1.57;0.70;;;6.20;99.90;;;;;;5155755;27;20194;-81
2021/12/02 01:01:37;;;;;;;4.00;0.90;;;6.20;99.90;;;;;;5155026;27;20548;-81
2021/12/02 01:04:09;;;;;;;3.13;0.60;;;6.20;99.90;;;;;;5155605;27;20262;-82
2021/12/02 01:06:36;;;;;;;1.83;0.50;;;6.10;99.90;;;;;;5155133;27;20238;-83
2021/12/02 01:09:06;;;;;;;3.87;0.60;;;6.10;99.90;;;;;;5155452;27;20193;-80
2021/12/02 01:11:33;;;;;;;2.30;0.60;;;6.00;99.90;;;;;;5155371;27;20181;-81
2021/12/02 01:14:00;;;;;;;2.90;0.80;;;6.00;99.90;;;;;;5155313;27;20195;-81
2021/12/02 01:16:28;;;;;;;3.37;0.80;;;5.90;99.90;;;;;;5155080;27;20551;-81
2021/12/02 01:18:57;;;;;;;2.87;1.00;;;5.90;99.90;;;;;;5155356;27;20205;-81
2021/12/02 01:21:26;;;;;;;3.00;0.70;;;5.90;99.90;;;;;;5155552;27;20193;-81
2021/12/02 01:23:59;;;;;;;4.73;1.70;;;5.90;99.90;;;;;;5155040;27;20225;-81
2021/12/02 01:26:29;;;;;;;1.87;0.60;;;5.80;99.90;;;;;;5155143;27;20183;-83
2021/12/02 01:28:57;;;;;;;1.87;0.70;;;5.80;99.90;;;;;;5155490;27;20198;-80
2021/12/02 01:31:29;;;;;;;1.63;0.70;;;5.80;99.90;;;;;;5154983;27;20642;-81
2021/12/02 01:34:00;;;;;;;5.13;1.37;;;5.70;99.90;;;;;;5155452;27;20193;-82
2021/12/02 01:36:32;;;;;;;2.20;0.90;;;5.70;99.90;;;;;;5155211;27;20202;-81
2021/12/02 01:39:00;;;;;;;1.40;0.80;;;5.60;99.90;;;;;;5154713;27;20234;-80
2021/12/02 01:41:27;;;;;;;2.90;0.70;;;5.70;99.90;;;;;;5154594;27;20235;-81
2021/12/02 01:43:55;;;;;;;3.00;1.13;;;5.70;99.90;;;;;;5154877;27;20211;-81
2021/12/02 01:46:24;;;;;;;1.23;0.60;;;5.60;99.90;;;;;;5154820;27;20242;-81
2021/12/02 01:49:00;;;;;;;1.37;0.97;;;5.60;99.90;;;;;;5154632;27;20197;-82
2021/12/02 01:51:30;;;;;;;4.60;0.90;;;5.60;99.90;;;;;;5154846;27;20265;-81
2021/12/02 01:54:06;;;;;;;3.80;0.97;;;5.50;99.90;;;;;;5154842;27;20198;-82
2021/12/02 01:56:41;;;;;;;1.83;0.83;;;5.50;99.90;;;;;;5154644;27;20192;-81
2021/12/02 01:59:12;;;;;;;1.63;0.80;;;5.40;99.90;;;;;;5154390;27;20260;-81
2021/12/02 02:01:42;;;;;;;1.60;0.90;;;5.40;99.90;;;;;;5154461;27;20205;-81
2021/12/02 02:04:09;;;;;;;2.30;0.90;;;5.40;99.90;;;;;;5154530;27;20282;-79
2021/12/02 02:06:41;;;;;;;3.73;1.07;;;5.30;99.90;;;;;;5153296;27;20201;-81
2021/12/02 02:09:09;;;;;;;1.40;0.60;;;5.30;99.90;;;;;;5154406;27;20330;-80
2021/12/02 02:11:36;;;;;;;5.10;1.00;;;5.30;99.90;;;;;;5153989;27;20650;-80
2021/12/02 02:14:06;;;;;;;2.60;0.60;;;5.30;99.90;;;;;;5154438;27;20200;-81
2021/12/02 02:16:34;;;;;;;1.50;0.73;;;5.20;99.90;;;;;;5154638;27;20285;-81
2021/12/02 02:19:01;;;;;;;2.73;0.70;;;5.10;99.90;;;;;;5154531;27;20253;-80
2021/12/02 02:21:32;;;;;;;2.33;0.80;;;5.10;99.90;;;;;;5154419;27;20200;-80
2021/12/02 02:24:01;;;;;;;2.30;0.60;;;5.00;99.90;;;;;;5154600;27;20219;-80
2021/12/02 02:26:34;;;;;;;0.87;0.47;;;4.90;99.90;;;;;;5154667;27;20533;-81
2021/12/02 02:29:01;;;;;;;1.37;0.70;;;4.80;99.90;;;;;;5154828;27;20189;-81
2021/12/02 02:31:30;;;;;;;1.87;0.40;;;4.70;99.90;;;;;;5154182;27;20193;-80
2021/12/02 02:33:57;;;;;;;1.70;0.87;;;4.70;99.90;;;;;;5154675;27;20189;-82
2021/12/02 02:36:27;;;;;;;1.10;0.50;;;4.60;99.90;;;;;;5154082;27;20190;-81
2021/12/02 02:38:56;;;;;;;1.80;0.60;;;4.60;99.90;;;;;;5154068;27;20200;-80
2021/12/02 02:41:25;;;;;;;1.33;0.50;;;4.60;99.90;;;;;;5153611;27;20267;-80
2021/12/02 02:43:56;;;;;;;3.20;0.60;;;4.50;99.90;;;;;;5154187;27;20327;-80
2021/12/02 02:46:25;;;;;;;1.80;0.70;;;4.50;99.90;;;;;;5154078;27;20694;-81
2021/12/02 02:48:52;;;;;;;1.50;0.60;;;4.50;99.90;;;;;;5153600;27;20612;-81
2021/12/02 02:51:20;;;;;;;1.33;1.20;;;4.50;99.90;;;;;;5153853;27;20762;-81
2021/12/02 02:53:50;;;;;;;2.03;1.00;;;4.40;99.90;;;;;;5153568;27;20194;-82
2021/12/02 02:56:19;;;;;;;1.80;0.70;;;4.40;99.90;;;;;;5153910;27;20228;-81
2021/12/02 02:58:58;;;;;;;1.47;0.60;;;4.40;99.90;;;;;;5153769;27;20582;-81
2021/12/02 03:01:35;;;;;;;0.63;0.50;;;4.30;99.90;;;;;;5153559;27;20226;-80
2021/12/02 03:04:14;;;;;;;2.20;0.60;;;4.30;99.90;;;;;;5153742;27;20204;-80
2021/12/02 03:06:49;;;;;;;2.17;0.70;;;4.30;99.90;;;;;;5153733;27;20649;-80
2021/12/02 03:09:25;;;;;;;1.83;0.90;;;4.30;99.90;;;;;;5153498;27;20545;-81
2021/12/02 03:11:55;;;;;;;3.63;1.13;;;4.30;99.90;;;;;;5154162;27;20624;-81
2021/12/02 03:14:29;;;;;;;2.47;1.20;;;4.30;99.90;;;;;;5153840;27;20216;-81
2021/12/02 03:16:55;;;;;;;3.17;1.73;;;4.30;99.90;;;;;;5153424;27;20556;-82
2021/12/02 03:19:29;;;;;;;1.20;0.70;;;4.30;99.90;;;;;;5156897;27;20188;-81
2021/12/02 03:21:57;;;;;;;2.10;0.70;;;4.30;99.90;;;;;;5157401;27;20667;-80
2021/12/02 03:24:25;;;;;;;1.97;0.80;;;4.30;99.90;;;;;;5157461;27;20201;-81
2021/12/02 03:26:54;;;;;;;0.80;0.50;;;4.30;99.90;;;;;;5157178;27;20204;-81
2021/12/02 03:29:21;;;;;;;0.90;0.70;;;4.30;99.90;;;;;;5157530;27;20204;-80
2021/12/02 03:31:48;;;;;;;3.30;0.80;;;4.30;99.90;;;;;;5157551;27;20193;-81
2021/12/02 03:34:15;;;;;;;2.67;0.90;;;4.30;99.90;;;;;;5157324;27;20717;-81
2021/12/02 03:36:42;;;;;;;1.37;0.70;;;4.30;99.90;;;;;;5157356;27;20208;-80
2021/12/02 03:39:11;;;;;;;1.60;0.70;;;4.20;99.90;;;;;;5156893;27;20204;-80
2021/12/02 03:41:40;;;;;;;2.63;1.00;;;4.20;99.90;;;;;;5156785;27;20613;-81
2021/12/02 03:44:09;;;;;;;4.17;0.80;;;4.20;99.90;;;;;;5157130;27;20215;-81
2021/12/02 03:46:37;;;;;;;3.53;0.80;;;4.20;99.90;;;;;;5157410;27;20191;-80
2021/12/02 03:49:05;;;;;;;4.70;1.00;;;4.20;99.90;;;;;;5157234;27;20575;-80
2021/12/02 03:51:32;;;;;;;2.10;1.10;;;4.20;99.90;;;;;;5157093;27;20201;-80
2021/12/02 03:53:59;;;;;;;3.00;1.00;;;4.20;99.90;;;;;;5157015;27;20237;-81
2021/12/02 03:56:27;;;;;;;4.50;1.20;;;4.20;99.90;;;;;;5157280;27;20254;-81
2021/12/02 03:58:54;;;;;;;2.13;1.30;;;4.20;99.90;;;;;;5156935;27;20193;-80
2021/12/02 04:01:23;;;;;;;3.80;0.70;;;4.20;99.90;;;;;;5156587;27;20197;-81
2021/12/02 04:03:50;;;;;;;2.60;0.63;;;4.20;99.90;;;;;;5156770;27;20572;-81
2021/12/02 04:06:18;;;;;;;1.50;0.70;;;4.20;99.90;;;;;;5156476;27;20200;-81
2021/12/02 04:08:49;;;;;;;1.73;1.00;;;4.20;99.90;;;;;;5156382;27;20219;-81
2021/12/02 04:11:30;;;;;;;2.43;1.20;;;4.20;99.90;;;;;;5156626;27;20672;-81
2021/12/02 04:14:07;;;;;;;2.20;0.80;;;4.20;99.90;;;;;;5156264;27;20252;-80
2021/12/02 04:16:37;;;;;;;2.87;0.80;;;4.20;99.90;;;;;;5156493;27;20203;-80
2021/12/02 04:19:06;;;;;;;2.87;0.60;;;4.20;99.90;;;;;;5156756;27;20196;-81
2021/12/02 04:21:33;;;;;;;2.60;0.90;;;4.20;99.90;;;;;;5156459;27;20197;-80
2021/12/02 04:24:01;;;;;;;3.83;1.00;;;4.20;99.90;;;;;;5156355;27;20261;-80
2021/12/02 04:26:28;;;;;;;1.37;0.60;;;4.20;99.90;;;;;;5156102;27;20192;-80
2021/12/02 04:28:55;;;;;;;1.87;0.83;;;4.20;99.90;;;;;;5155910;27;20194;-81
2021/12/02 04:31:22;;;;;;;3.23;1.00;;;4.20;99.90;;;;;;5155741;27;20197;-80
2021/12/02 04:33:51;;;;;;;1.10;0.60;;;4.20;99.90;;;;;;5156287;27;20198;-81
2021/12/02 04:36:18;;;;;;;4.03;0.83;;;4.20;99.90;;;;;;5156057;27;20583;-81
2021/12/02 04:38:45;;;;;;;1.80;0.67;;;4.20;99.90;;;;;;5156265;27;20249;-80
2021/12/02 04:41:13;;;;;;;1.67;0.77;;;4.20;99.90;;;;;;5156104;27;20741;-81
2021/12/02 04:43:40;;;;;;;2.23;0.90;;;4.20;99.90;;;;;;5156124;27;20237;-81
2021/12/02 04:46:07;;;;;;;1.70;0.83;;;4.20;99.90;;;;;;5156166;27;20205;-81
2021/12/02 04:48:34;;;;;;;2.60;0.73;;;4.20;99.90;;;;;;5155908;27;20195;-80
2021/12/02 04:51:03;;;;;;;2.57;0.80;;;4.20;99.90;;;;;;5155854;27;20190;-81
2021/12/02 04:53:30;;;;;;;2.07;0.83;;;4.20;99.90;;;;;;5155881;27;20196;-81
2021/12/02 04:55:57;;;;;;;6.93;1.23;;;4.20;99.90;;;;;;5155717;27;20196;-81
2021/12/02 04:58:24;;;;;;;3.10;0.80;;;4.20;99.90;;;;;;5155297;27;20560;-80
2021/12/02 05:00:51;;;;;;;2.83;1.00;;;4.20;99.90;;;;;;5155644;27;20203;-80
2021/12/02 05:03:18;;;;;;;1.10;0.70;;;4.20;99.90;;;;;;5155372;27;20233;-81
2021/12/02 05:05:45;;;;;;;2.97;1.07;;;4.20;99.90;;;;;;5155540;27;20213;-80
2021/12/02 05:08:14;;;;;;;2.87;0.83;;;4.20;99.90;;;;;;5155667;27;20196;-80
2021/12/02 05:10:42;;;;;;;4.07;1.07;;;4.20;99.90;;;;;;5155648;27;20653;-81
2021/12/02 05:13:09;;;;;;;2.43;0.70;;;4.20;99.90;;;;;;5155447;27;20250;-81
2021/12/02 05:15:36;;;;;;;1.90;1.10;;;4.20;99.90;;;;;;5155413;27;20191;-81
2021/12/02 05:18:04;;;;;;;3.70;1.20;;;4.20;99.90;;;;;;5155116;27;20260;-80
2021/12/02 05:20:31;;;;;;;3.53;1.40;;;4.20;99.90;;;;;;5154982;27;20188;-80
2021/12/02 05:22:58;;;;;;;0.97;0.67;;;4.20;99.90;;;;;;5154936;27;20241;-81
2021/12/02 05:25:27;;;;;;;3.17;1.10;;;4.20;99.90;;;;;;5154809;27;20687;-81
2021/12/02 05:27:54;;;;;;;2.17;1.00;;;4.20;99.90;;;;;;5155012;27;20193;-81
2021/12/02 05:30:22;;;;;;;6.23;1.20;;;4.20;99.90;;;;;;5155191;27;20202;-82
2021/12/02 05:32:50;;;;;;;4.17;1.40;;;4.20;99.90;;;;;;5155085;27;20665;-81
2021/12/02 05:35:18;;;;;;;6.13;1.23;;;4.10;99.90;;;;;;5155006;27;20305;-80
2021/12/02 05:37:45;;;;;;;5.40;1.83;;;4.10;99.90;;;;;;5155208;27;20236;-81
2021/12/02 05:40:13;;;;;;;2.87;1.00;;;4.20;99.90;;;;;;5154498;27;20277;-81
2021/12/02 05:42:41;;;;;;;1.97;0.90;;;4.10;99.90;;;;;;5154828;27;20203;-81
2021/12/02 05:45:09;;;;;;;5.03;1.33;;;4.10;99.90;;;;;;5154788;27;20204;-81
2021/12/02 05:47:36;;;;;;;4.77;1.10;;;4.10;99.90;;;;;;5154800;27;20656;-81
2021/12/02 05:50:04;;;;;;;1.87;0.90;;;4.10;99.90;;;;;;5154702;27;20205;-81
2021/12/02 05:52:31;;;;;;;3.77;1.53;;;4.10;99.90;;;;;;5153815;27;20193;-80
2021/12/02 05:54:59;;;;;;;3.33;1.10;;;4.10;99.90;;;;;;5154349;27;20253;-81
2021/12/02 05:57:26;;;;;;;3.80;1.10;;;4.10;99.90;;;;;;5154532;27;20190;-81
2021/12/02 05:59:54;;;;;;;5.13;1.10;;;4.10;99.90;;;;;;5154573;27;20192;-80
2021/12/02 06:02:21;;;;;;;3.70;1.10;;;4.10;99.90;;;;;;5154511;27;20208;-81
2021/12/02 06:04:52;;;;;;;3.13;1.30;;;4.10;99.90;;;;;;5154508;27;20702;-81
2021/12/02 06:07:20;;;;;;;3.93;1.70;;;4.10;99.90;;;;;;5154720;27;20197;-81
2021/12/02 06:09:48;;;;;;;5.37;1.80;;;4.00;99.90;;;;;;5154944;27;20198;-81
2021/12/02 06:12:15;;;;;;;2.73;1.20;;;4.00;99.90;;;;;;5154197;27;20593;-81
2021/12/02 06:14:42;;;;;;;5.07;1.10;;;4.00;99.90;;;;;;5153972;27;20195;-81
2021/12/02 06:17:10;;;;;;;8.67;3.90;;;4.00;99.90;;;;;;5154604;27;20604;-82
2021/12/02 06:19:38;;;;;;;7.93;4.43;;;4.00;99.90;;;;;;5154464;27;20201;-81
2021/12/02 06:22:05;;;;;;;7.87;4.07;;;4.00;99.90;;;;;;5154306;27;20200;-81
2021/12/02 06:24:41;;;;;;;7.50;2.90;;;4.00;99.90;;;;;;5153798;27;20266;-81
2021/12/02 06:27:08;;;;;;;10.83;5.17;;;4.00;99.90;;;;;;5154521;27;20193;-80
2021/12/02 06:29:35;;;;;;;10.40;3.30;;;3.90;99.90;;;;;;5154291;27;20197;-80
2021/12/02 06:32:04;;;;;;;37.77;15.73;;;3.90;99.90;;;;;;5153839;27;20221;-81
2021/12/02 06:34:32;;;;;;;12.67;4.63;;;3.90;99.90;;;;;;5154153;27;20279;-81
2021/12/02 06:36:59;;;;;;;17.57;6.40;;;3.90;99.90;;;;;;5154141;27;20250;-80
2021/12/02 06:39:26;;;;;;;24.40;9.27;;;3.80;99.90;;;;;;5153831;27;20658;-81
2021/12/02 06:41:53;;;;;;;14.83;5.93;;;3.80;99.90;;;;;;5154231;27;20173;-81
2021/12/02 06:44:20;;;;;;;18.53;7.80;;;3.80;99.90;;;;;;5154156;27;20200;-81
2021/12/02 06:46:47;;;;;;;5.90;3.00;;;3.90;99.90;;;;;;5154327;27;20645;-81
2021/12/02 06:49:14;;;;;;;12.10;4.13;;;3.80;99.90;;;;;;5154226;27;20249;-80
2021/12/02 06:51:43;;;;;;;15.83;8.27;;;3.80;99.90;;;;;;5154002;27;20197;-81
2021/12/02 06:54:10;;;;;;;11.23;5.50;;;3.80;99.90;;;;;;5157160;27;20200;-81
2021/12/02 06:56:37;;;;;;;11.47;6.60;;;3.80;99.90;;;;;;5157686;27;20188;-81
2021/12/02 06:59:04;;;;;;;5.30;2.03;;;3.80;99.90;;;;;;5157954;27;20189;-80
2021/12/02 07:01:31;;;;;;;10.33;6.00;;;3.80;99.90;;;;;;5157884;27;20196;-81
2021/12/02 07:03:58;;;;;;;2.97;1.70;;;3.80;99.90;;;;;;5157772;27;20190;-83
2021/12/02 07:06:25;;;;;;;6.83;4.37;;;3.80;99.90;;;;;;5157376;27;20213;-82
2021/12/02 07:08:53;;;;;;;6.53;3.37;;;3.80;99.90;;;;;;5158001;27;20201;-82
2021/12/02 07:11:20;;;;;;;5.87;2.80;;;3.80;99.90;;;;;;5158067;27;20217;-82
2021/12/02 07:13:49;;;;;;;5.37;2.90;;;3.80;99.90;;;;;;5157770;27;20584;-81
2021/12/02 07:16:19;;;;;;;19.43;9.03;;;3.80;99.90;;;;;;5157605;27;20199;-80
2021/12/02 07:18:53;;;;;;;2.33;1.40;;;3.70;99.90;;;;;;5157606;27;20273;-82
2021/12/02 07:21:20;;;;;;;4.37;2.63;;;3.80;99.90;;;;;;5158011;27;20698;-82
2021/12/02 07:23:47;;;;;;;8.13;3.70;;;3.70;99.90;;;;;;5157709;27;20209;-80
2021/12/02 07:26:16;;;;;;;5.97;4.13;;;3.70;99.90;;;;;;5156983;27;20658;-82
2021/12/02 07:28:45;;;;;;;4.13;2.07;;;3.70;99.90;;;;;;5157435;27;20189;-81
2021/12/02 07:31:13;;;;;;;9.83;5.00;;;3.70;99.90;;;;;;5157498;27;20209;-82
2021/12/02 07:33:47;;;;;;;8.33;3.50;;;3.70;99.90;;;;;;5156672;27;20190;-83
2021/12/02 07:36:16;;;;;;;4.00;2.63;;;3.70;99.90;;;;;;5157031;27;20594;-82
2021/12/02 07:38:44;;;;;;;6.57;3.70;;;3.70;99.90;;;;;;5156053;27;20193;-81
2021/12/02 07:41:14;;;;;;;9.40;4.77;;;3.70;99.90;;;;;;5156005;27;20224;-81
2021/12/02 07:43:43;;;;;;;4.53;2.00;;;3.70;99.90;;;;;;5157016;27;20559;-80
2021/12/02 07:46:10;;;;;;;8.80;3.13;;;3.70;99.90;;;;;;5156755;27;20223;-81
2021/12/02 07:48:38;;;;;;;6.87;4.60;;;3.70;99.90;;;;;;5156589;27;20563;-81
2021/12/02 07:51:13;;;;;;;5.00;3.20;;;3.70;99.90;;;;;;5156576;27;20185;-81
2021/12/02 07:53:42;;;;;;;81.40;26.90;;;3.70;99.90;;;;;;5156753;27;20199;-81
2021/12/02 07:56:12;;;;;;;22.83;11.33;;;3.70;99.90;;;;;;5156586;27;20193;-81
2021/12/02 07:58:43;;;;;;;4.80;2.93;;;3.70;99.90;;;;;;5157031;27;20290;-81
2021/12/02 08:01:11;;;;;;;4.93;3.10;;;3.80;99.90;;;;;;5156640;27;20216;-80
2021/12/02 08:03:43;;;;;;;5.33;3.20;;;3.80;99.90;;;;;;5156222;27;20571;-81
2021/12/02 08:06:11;;;;;;;11.60;4.60;;;3.80;99.90;;;;;;5156398;27;20227;-80
2021/12/02 08:08:38;;;;;;;17.23;6.50;;;3.80;99.90;;;;;;5156319;27;20600;-81
2021/12/02 08:11:06;;;;;;;15.57;7.70;;;3.70;99.90;;;;;;5156576;27;20193;-84
2021/12/02 08:13:34;;;;;;;11.37;4.90;;;3.80;99.90;;;;;;5156570;27;20201;-80
2021/12/02 08:16:05;;;;;;;17.83;6.97;;;3.70;99.90;;;;;;5156066;27;20716;-80
2021/12/02 08:18:32;;;;;;;20.07;7.83;;;3.80;99.90;;;;;;5156210;27;20197;-79
2021/12/02 08:20:59;;;;;;;21.53;9.37;;;3.70;99.90;;;;;;5156067;27;20560;-80
2021/12/02 08:23:27;;;;;;;71.20;25.67;;;3.80;99.90;;;;;;5156182;27;20220;-79
2021/12/02 08:25:55;;;;;;;48.53;20.63;;;3.70;99.90;;;;;;5156280;27;20220;-79
2021/12/02 08:28:22;;;;;;;22.83;8.93;;;3.70;99.90;;;;;;5156340;27;20253;-79
2021/12/02 08:30:50;;;;;;;7.37;3.10;;;3.70;99.90;;;;;;5156109;27;20200;-79
2021/12/02 08:33:19;;;;;;;6.37;2.80;;;3.70;99.90;;;;;;5155703;27;20679;-79
2021/12/02 08:35:48;;;;;;;16.23;9.53;;;3.70;99.90;;;;;;5155935;27;20619;-79
2021/12/02 08:38:17;;;;;;;16.43;9.10;;;3.70;99.90;;;;;;5155457;27;20650;-80
2021/12/02 08:40:47;;;;;;;9.33;4.17;;;3.60;99.90;;;;;;5155832;27;20282;-79
2021/12/02 08:43:15;;;;;;;16.77;7.73;;;3.60;99.90;;;;;;5155700;27;20280;-80
2021/12/02 08:45:44;;;;;;;11.87;6.20;;;3.60;99.90;;;;;;5155711;27;20221;-79
2021/12/02 08:48:12;;;;;;;2.67;1.70;;;3.60;99.90;;;;;;5155909;27;20201;-79
2021/12/02 08:50:40;;;;;;;28.03;14.90;;;3.50;99.90;;;;;;5155645;27;20201;-80
2021/12/02 08:53:09;;;;;;;15.70;8.30;;;3.50;99.90;;;;;;5155441;27;20201;-80
2021/12/02 08:55:36;;;;;;;7.77;3.40;;;3.60;99.90;;;;;;5155769;27;20225;-80
2021/12/02 08:58:04;;;;;;;15.93;6.50;;;3.60;99.90;;;;;;5155285;27;20208;-80
2021/12/02 09:00:35;;;;;;;9.77;4.10;;;3.60;99.90;;;;;;5155655;27;20189;-80
2021/12/02 09:03:03;;;;;;;7.53;3.03;;;3.60;99.90;;;;;;5155151;27;20188;-80
2021/12/02 09:05:30;;;;;;;7.60;3.43;;;3.60;99.90;;;;;;5134410;27;20227;-79
2021/12/02 09:07:59;;;;;;;6.20;3.20;;;3.70;99.90;;;;;;5134607;27;20709;-80
2021/12/02 09:10:27;;;;;;;48.20;22.53;;;3.70;99.90;;;;;;5134556;27;20196;-80
2021/12/02 09:12:55;;;;;;;10.33;5.20;;;3.70;99.90;;;;;;5134912;27;20299;-80
2021/12/02 09:15:23;;;;;;;30.60;16.07;;;3.70;99.90;;;;;;5133734;27;20329;-80
2021/12/02 09:17:51;;;;;;;15.03;9.80;;;3.70;99.90;;;;;;5144024;27;20685;-79
2021/12/02 09:20:18;;;;;;;7.40;4.20;;;3.80;99.90;;;;;;5154889;27;20185;-80
2021/12/02 09:22:47;;;;;;;6.27;3.37;;;3.70;99.90;;;;;;5154792;27;20249;-80
2021/12/02 09:25:17;;;;;;;3.17;1.93;;;3.70;99.90;;;;;;5154394;27;20201;-79
2021/12/02 09:27:44;;;;;;;3.43;1.97;;;3.70;99.90;;;;;;5154423;27;20193;-80
2021/12/02 09:30:12;;;;;;;4.60;3.20;;;3.70;99.90;;;;;;5152000;27;20185;-80
2021/12/02 09:32:41;;;;;;;5.17;3.77;;;3.70;99.90;;;;;;5154715;27;20208;-81
2021/12/02 09:35:10;;;;;;;3.53;2.87;;;3.70;99.90;;;;;;5154770;27;20211;-80
2021/12/02 09:37:38;;;;;;;5.73;3.40;;;3.70;99.90;;;;;;5154559;27;20190;-80
2021/12/02 09:40:07;;;;;;;2.50;1.63;;;3.80;99.90;;;;;;5154475;27;20235;-80
2021/12/02 09:42:36;;;;;;;6.20;3.63;;;3.80;99.90;;;;;;5154256;27;20816;-81
2021/12/02 09:45:04;;;;;;;6.73;3.23;;;3.80;99.90;;;;;;5153869;27;20178;-79
2021/12/02 09:47:33;;;;;;;11.83;5.77;;;3.80;99.90;;;;;;5154314;27;20213;-80
2021/12/02 09:50:05;;;;;;;4.77;3.57;;;3.70;99.90;;;;;;5154900;27;20200;-80
2021/12/02 09:52:35;;;;;;;3.33;2.03;;;3.70;99.90;;;;;;5154568;27;20191;-81
2021/12/02 09:55:06;;;;;;;1.93;1.20;;;3.70;99.90;;;;;;5153547;27;20204;-80
2021/12/02 09:57:39;;;;;;;2.87;1.20;;;3.60;99.90;;;;;;5154228;27;20538;-80
2021/12/02 10:00:15;;;;;;;2.10;0.70;;;3.60;99.90;;;;;;5153736;27;20193;-79
2021/12/02 10:02:50;;;;;;;3.97;1.10;;;3.60;99.90;;;;;;5153095;27;20288;-79
2021/12/02 10:05:28;;;;;;;2.43;0.90;;;3.60;99.90;;;;;;5153307;27;20231;-79
2021/12/02 10:08:01;;;;;;;5.97;2.53;;;3.60;99.90;;;;;;5154427;27;20196;-78
2021/12/02 10:10:31;;;;;;;3.97;3.10;;;3.70;99.90;;;;;;5154073;27;20305;-77
2021/12/02 10:13:23;;;;;;;4.03;3.13;;;3.60;99.90;;;;;;5152910;27;20196;-78
2021/12/02 10:16:05;;;;;;;2.17;1.13;;;3.70;99.90;;;;;;5149938;27;20651;-79
2021/12/02 10:18:38;;;;;;;5.90;3.23;;;3.70;99.90;;;;;;5148971;27;20268;-79
2021/12/02 10:21:24;;;;;;;3.17;1.70;;;3.70;99.90;;;;;;5151574;27;20178;-80
2021/12/02 10:23:53;;;;;;;4.47;3.07;;;3.80;99.90;;;;;;5150026;27;20211;-79
2021/12/02 10:26:22;;;;;;;3.80;2.67;;;3.80;99.90;;;;;;5151618;27;20209;-79
2021/12/02 10:28:52;;;;;;;3.20;1.50;;;3.80;99.90;;;;;;5150070;27;20638;-79
2021/12/02 10:31:23;;;;;;;2.23;1.23;;;3.80;99.90;;;;;;5156921;27;20197;-79
2021/12/02 10:33:54;;;;;;;2.00;1.00;;;3.90;99.90;;;;;;5154850;27;20195;-80
2021/12/02 10:36:28;;;;;;;2.17;1.30;;;3.80;99.90;;;;;;5157115;27;20649;-78
2021/12/02 10:38:58;;;;;;;1.93;1.10;;;3.80;99.90;;;;;;5158712;27;20184;-79
2021/12/02 10:41:28;;;;;;;3.83;1.27;;;3.80;99.90;;;;;;5157984;27;20265;-80
2021/12/02 10:44:13;;;;;;;1.70;0.90;;;3.90;99.90;;;;;;5158193;27;20197;-78
2021/12/02 10:46:51;;;;;;;2.37;0.77;;;4.10;99.90;;;;;;5158089;27;20237;-79
2021/12/02 10:49:19;;;;;;;3.93;1.40;;;4.20;99.90;;;;;;5157560;27;20632;-78
2021/12/02 10:51:50;;;;;;;7.60;4.00;;;4.30;99.90;;;;;;5158065;27;20195;-80
2021/12/02 10:54:21;;;;;;;6.93;4.10;;;4.40;99.90;;;;;;5158084;27;20185;-79
2021/12/02 10:56:50;;;;;;;9.13;4.37;;;4.50;99.90;;;;;;5157816;27;20182;-79
2021/12/02 10:59:32;;;;;;;10.53;4.30;;;4.60;99.90;;;;;;5157939;27;20203;-80
2021/12/02 11:02:03;;;;;;;12.20;6.63;;;4.70;99.90;;;;;;5158026;27;20185;-79
2021/12/02 11:04:40;;;;;;;20.57;9.43;;;4.70;99.90;;;;;;5158287;27;20174;-80
2021/12/02 11:07:11;;;;;;;11.57;5.87;;;4.80;99.90;;;;;;5157971;27;20665;-79
2021/12/02 11:09:40;;;;;;;28.00;12.67;;;4.80;99.90;;;;;;5158212;27;20197;-79
2021/12/02 11:12:13;;;;;;;14.60;6.73;;;4.80;99.90;;;;;;5157271;27;20200;-78
2021/12/02 11:14:44;;;;;;;18.47;8.67;;;4.80;99.90;;;;;;5157500;27;20293;-80
2021/12/02 11:17:13;;;;;;;11.53;5.90;;;4.80;99.90;;;;;;5156648;27;20189;-78
2021/12/02 11:19:48;;;;;;;29.47;13.67;;;4.80;99.90;;;;;;5136472;27;20190;-79
2021/12/02 11:22:24;;;;;;;13.20;6.93;;;4.90;99.90;;;;;;5146688;27;20181;-78
2021/12/02 11:25:05;;;;;;;8.13;4.57;;;4.90;99.90;;;;;;5157815;27;20554;-77
2021/12/02 11:27:40;;;;;;;12.47;6.17;;;4.90;99.90;;;;;;5156997;27;20202;-77
2021/12/02 11:30:13;;;;;;;10.07;5.13;;;4.90;99.90;;;;;;5156609;27;20185;-78
2021/12/02 11:32:46;;;;;;;9.40;5.37;;;5.00;99.90;;;;;;5157058;27;20186;-78
2021/12/02 11:35:33;;;;;;;11.80;6.07;;;5.00;99.90;;;;;;5157376;27;20174;-78
2021/12/02 11:38:06;;;;;;;9.87;4.00;;;5.00;99.90;;;;;;5156803;27;20580;-77
2021/12/02 11:40:38;;;;;;;6.10;3.90;;;5.00;99.90;;;;;;5156290;27;20225;-78
2021/12/02 11:43:06;;;;;;;9.23;6.17;;;4.90;99.90;;;;;;5156733;27;20189;-78
2021/12/02 11:45:42;;;;;;;6.57;4.10;;;4.80;99.90;;;;;;5156604;27;20193;-78
2021/12/02 11:48:09;;;;;;;8.17;5.40;;;4.70;99.90;;;;;;5154655;27;20205;-79
2021/12/02 11:50:36;;;;;;;8.00;2.63;;;4.70;99.90;;;;;;5156640;27;20201;-79
2021/12/02 11:53:03;;;;;;;7.70;4.60;;;4.60;99.90;;;;;;5156600;27;20192;-79
2021/12/02 11:55:32;;;;;;;9.67;5.77;;;4.60;99.90;;;;;;5157318;27;20197;-79
2021/12/02 11:58:00;;;;;;;5.53;3.50;;;4.60;99.90;;;;;;5156788;27;20193;-79
2021/12/02 12:00:29;;;;;;;14.53;8.13;;;4.60;99.90;;;;;;5156819;27;20205;-79
2021/12/02 12:03:03;;;;;;;8.90;5.33;;;4.60;99.90;;;;;;5155570;27;20606;-79
2021/12/02 12:05:32;;;;;;;10.23;5.10;;;4.60;99.90;;;;;;5156370;27;20180;-78
2021/12/02 12:08:00;;;;;;;7.93;3.70;;;4.50;99.90;;;;;;5156345;27;20262;-79
2021/12/02 12:10:36;;;;;;;14.20;6.00;;;4.50;99.90;;;;;;5156119;27;20188;-79
2021/12/02 12:13:18;;;;;;;19.03;7.50;;;4.50;99.90;;;;;;5156357;27;20189;-79
2021/12/02 12:15:48;;;;;;;23.07;8.13;;;4.50;99.90;;;;;;5156417;27;20637;-79
2021/12/02 12:18:35;;;;;;;25.07;11.30;;;4.40;99.90;;;;;;5156497;27;20254;-79
2021/12/02 12:21:05;;;;;;;24.47;12.83;;;4.40;99.90;;;;;;5156935;27;20265;-79
2021/12/02 12:24:00;;;;;;;30.00;12.87;;;4.30;99.90;;;;;;5156203;27;20193;-79
2021/12/02 12:26:36;;;;;;;30.10;10.40;;;4.30;99.90;;;;;;5155583;27;20629;-79
2021/12/02 12:29:28;;;;;;;35.47;14.03;;;4.20;99.90;;;;;;5156581;27;20193;-78
2021/12/02 12:35:37;;;;;;;16.30;7.60;;;4.20;99.90;;;;;;5075743;28;20188;-79
2021/12/02 12:38:22;;;;;;;18.57;8.20;;;4.20;99.90;;;;;;5144985;27;20653;-79
2021/12/02 12:40:52;;;;;;;10.97;6.60;;;4.20;99.90;;;;;;5155854;27;20221;-79
2021/12/02 12:43:33;;;;;;;11.50;6.17;;;4.20;99.90;;;;;;5155896;27;20241;-78
2021/12/02 12:46:15;;;;;;;8.63;4.60;;;4.10;99.90;;;;;;5155849;27;20184;-78
2021/12/02 12:48:42;;;;;;;13.57;7.53;;;4.10;99.90;;;;;;5155900;27;20185;-78
2021/12/02 12:51:21;;;;;;;5.30;3.23;;;4.00;99.90;;;;;;5154975;27;20248;-80
2021/12/02 12:53:50;;;;;;;12.13;7.33;;;4.00;99.90;;;;;;5155475;27;20181;-78
2021/12/02 12:56:19;;;;;;;18.53;10.60;;;4.00;99.90;;;;;;5155822;27;20193;-79
2021/12/02 12:59:05;;;;;;;9.40;5.33;;;4.00;99.90;;;;;;5155029;27;20185;-79
2021/12/02 13:01:32;;;;;;;12.37;6.30;;;4.00;99.90;;;;;;5155142;27;20650;-79
2021/12/02 13:04:15;;;;;;;10.40;5.90;;;4.00;99.90;;;;;;5155426;27;20189;-79
2021/12/02 13:07:06;;;;;;;6.43;3.30;;;3.90;99.90;;;;;;5154979;27;20222;-78
2021/12/02 13:09:56;;;;;;;7.30;4.23;;;3.90;99.90;;;;;;5155658;27;20181;-78
2021/12/02 13:12:47;;;;;;;14.90;5.73;;;3.90;99.90;;;;;;5154749;27;20210;-78
2021/12/02 13:15:18;;;;;;;17.07;7.30;;;3.90;99.90;;;;;;5155038;27;20219;-79
2021/12/02 13:17:47;;;;;;;7.67;3.10;;;3.80;99.90;;;;;;5154800;27;20269;-79